Terminal Aerodrome Forecast
Issued by NWS

Current Version | Previous Version | Text Only | Print | Product List | Glossary On
Versions: 1 2 3 4 5 6 7 8 9 10 11
000
FTAK31 PAJN 251100
TAFAWG
TAF
PAWG 251138Z 2512/2612 10010KT P6SM -RA OVC035
     FM251400 11008KT 6SM -RA BR BKN025 OVC035
     FM252100 13007KT P6SM VCSH SCT025 OVC040
     FM260600 13007KT P6SM -SHRA SCT015 OVC030
      AMD LTD TO CLD VIS AND WIND 2512/2515=

USA.gov is the U.S. government's official web portal to all federal, state and local government web resources and services.